Time;durP1;ratioP1;P1;durP2;ratioP2;P2;SDS_P1;SDS_P2;PMS_P1;PMS_P2;Temp;Humidity;BMP_temperature;BMP_pressure;BME280_temperature;BME280_humidity;BME280_pressure;Samples;Min_cycle;Max_cycle;Signal;HPM_P1;HPM_P2
2022/03/01 00:02:20;;;;;;;;;;;2.70;67.90;;;;;;5039257;28;20003;-91
2022/03/01 00:04:45;;;;;;;;;;;2.70;68.20;;;;;;5030481;28;20055;-91
2022/03/01 00:07:11;;;;;;;;;;;2.70;68.40;;;;;;5037725;28;20019;-91
2022/03/01 00:09:37;;;;;;;;;;;2.60;68.40;;;;;;5039754;28;19920;-92
2022/03/01 00:12:06;;;;;;;;;;;2.60;67.80;;;;;;5047862;28;19925;-91
2022/03/01 00:14:31;;;;;;;;;;;2.60;68.00;;;;;;5036249;28;19939;-91
2022/03/01 00:16:57;;;;;;;;;;;2.60;68.00;;;;;;5036357;28;19920;-91
2022/03/01 00:19:23;;;;;;;;;;;2.60;68.00;;;;;;5033719;28;19913;-91
2022/03/01 00:21:51;;;;;;;;;;;2.70;67.60;;;;;;5034194;28;19916;-91
2022/03/01 00:24:16;;;;;;;;;;;2.80;67.10;;;;;;5017184;28;19909;-91
2022/03/01 00:26:42;;;;;;;;;;;2.70;67.60;;;;;;5033665;28;20225;-91
2022/03/01 00:29:08;;;;;;;;;;;2.70;68.00;;;;;;5020336;28;19917;-91
2022/03/01 00:31:33;;;;;;;;;;;2.60;68.70;;;;;;5035377;28;20000;-90
2022/03/01 00:33:59;;;;;;;;;;;2.60;68.30;;;;;;5042496;28;19909;-91
2022/03/01 00:36:24;;;;;;;;;;;2.60;68.30;;;;;;5035003;28;19917;-91
2022/03/01 00:38:53;;;;;;;;;;;2.70;68.60;;;;;;5034794;28;20350;-91
2022/03/01 00:41:19;;;;;;;;;;;2.60;69.20;;;;;;5035979;28;19935;-91
2022/03/01 00:43:44;;;;;;;;;;;2.60;68.60;;;;;;5030122;28;19917;-91
2022/03/01 00:46:10;;;;;;;;;;;2.60;68.90;;;;;;5028037;28;20254;-91
2022/03/01 00:48:35;;;;;;;;;;;2.60;69.00;;;;;;5035692;28;19952;-91
2022/03/01 00:51:01;;;;;;;;;;;2.60;68.60;;;;;;5032408;28;19913;-90
2022/03/01 00:53:26;;;;;;;;;;;2.60;68.20;;;;;;5033391;28;19989;-90
2022/03/01 00:55:51;;;;;;;;;;;2.50;67.80;;;;;;5052962;28;19924;-91
2022/03/01 00:58:17;;;;;;;;;;;2.50;68.10;;;;;;5033639;28;19975;-91
2022/03/01 01:00:42;;;;;;;;;;;2.50;68.00;;;;;;5017517;28;19925;-91
2022/03/01 01:03:08;;;;;;;;;;;2.60;67.70;;;;;;5024264;28;19935;-91
2022/03/01 01:05:33;;;;;;;;;;;2.50;68.10;;;;;;5024442;28;19976;-91
2022/03/01 01:07:59;;;;;;;;;;;2.40;69.00;;;;;;5029946;28;19913;-91
2022/03/01 01:10:24;;;;;;;;;;;2.30;69.40;;;;;;5024285;28;19920;-91
2022/03/01 01:12:50;;;;;;;;;;;2.30;69.80;;;;;;5032224;28;19993;-91
2022/03/01 01:15:17;;;;;;;;;;;2.30;69.60;;;;;;5032459;28;19944;-91
2022/03/01 01:17:43;;;;;;;;;;;2.30;69.70;;;;;;5033062;28;19917;-91
2022/03/01 01:20:09;;;;;;;;;;;2.30;69.80;;;;;;5031504;28;20016;-90
2022/03/01 01:22:41;;;;;;;;;;;2.30;70.40;;;;;;5022643;28;19921;-91
2022/03/01 01:25:17;;;;;;;;;;;2.30;70.70;;;;;;5014332;28;19909;-90
2022/03/01 01:27:44;;;;;;;;;;;2.30;70.60;;;;;;5026459;28;19923;-91
2022/03/01 01:30:11;;;;;;;;;;;2.20;70.10;;;;;;5034522;28;20280;-91
2022/03/01 01:32:37;;;;;;;;;;;2.30;70.10;;;;;;5034658;28;20374;-91
2022/03/01 01:35:02;;;;;;;;;;;2.20;71.00;;;;;;5033760;28;19920;-91
2022/03/01 01:37:28;;;;;;;;;;;2.10;70.80;;;;;;5034923;28;19913;-91
2022/03/01 01:39:53;;;;;;;;;;;2.10;71.20;;;;;;5030953;28;20248;-91
2022/03/01 01:42:19;;;;;;;;;;;2.10;71.00;;;;;;5034011;28;19923;-91
2022/03/01 01:44:44;;;;;;;;;;;2.10;71.20;;;;;;5034475;28;19913;-91
2022/03/01 01:47:10;;;;;;;;;;;2.10;71.80;;;;;;5043692;28;19905;-91
2022/03/01 01:49:35;;;;;;;;;;;2.00;71.30;;;;;;5032495;28;19939;-91
2022/03/01 01:52:01;;;;;;;;;;;2.00;71.70;;;;;;5025522;28;20153;-90
2022/03/01 01:54:26;;;;;;;;;;;2.10;71.30;;;;;;5018648;28;19975;-90
2022/03/01 01:56:52;;;;;;;;;;;2.00;71.60;;;;;;5018535;28;19992;-91
2022/03/01 01:59:17;;;;;;;;;;;2.00;71.80;;;;;;5034819;28;19925;-91
2022/03/01 02:01:44;;;;;;;;;;;2.00;71.80;;;;;;5033188;28;19928;-91
2022/03/01 02:04:10;;;;;;;;;;;1.90;71.90;;;;;;5035743;28;20279;-91
2022/03/01 02:07:02;;;;;;;;;;;1.90;72.50;;;;;;5036886;28;19923;-89
2022/03/01 02:09:28;;;;;;;;;;;1.90;72.30;;;;;;5034081;28;19913;-89
2022/03/01 02:11:53;;;;;;;;;;;1.90;71.90;;;;;;5038372;28;19913;-89
2022/03/01 02:14:19;;;;;;;;;;;1.90;71.50;;;;;;5046549;28;19928;-89
2022/03/01 02:16:44;;;;;;;;;;;1.90;72.10;;;;;;5040156;28;19935;-91
2022/03/01 02:19:13;;;;;;;;;;;2.00;72.00;;;;;;5050729;28;19924;-91
2022/03/01 02:21:49;;;;;;;;;;;2.00;71.70;;;;;;5046596;28;19928;-90
2022/03/01 02:24:15;;;;;;;;;;;2.00;71.30;;;;;;5034722;28;19913;-90
2022/03/01 02:26:40;;;;;;;;;;;2.00;71.20;;;;;;5035370;28;19920;-90
2022/03/01 02:29:06;;;;;;;;;;;1.90;71.10;;;;;;5019698;28;19913;-90
2022/03/01 02:31:31;;;;;;;;;;;1.80;71.80;;;;;;5035175;28;20393;-91
2022/03/01 02:33:57;;;;;;;;;;;1.70;71.30;;;;;;5034877;28;19971;-91
2022/03/01 02:36:23;;;;;;;;;;;1.60;72.20;;;;;;5036523;28;19916;-90
2022/03/01 02:38:48;;;;;;;;;;;1.50;73.10;;;;;;5035814;28;19917;-90
2022/03/01 02:41:14;;;;;;;;;;;1.50;72.50;;;;;;5033013;28;19927;-91
2022/03/01 02:43:39;;;;;;;;;;;1.30;73.20;;;;;;5032066;28;19975;-91
2022/03/01 02:46:05;;;;;;;;;;;1.30;73.60;;;;;;5024838;28;19917;-91
2022/03/01 02:48:30;;;;;;;;;;;1.30;73.50;;;;;;5036314;28;19913;-91
2022/03/01 02:50:56;;;;;;;;;;;1.30;73.40;;;;;;5034127;28;19959;-90
2022/03/01 02:53:21;;;;;;;;;;;1.20;73.50;;;;;;5034948;28;19939;-88
2022/03/01 02:55:47;;;;;;;;;;;1.30;73.50;;;;;;5035615;28;19916;-88
2022/03/01 02:58:12;;;;;;;;;;;1.20;73.90;;;;;;5035368;28;19935;-88
2022/03/01 03:00:38;;;;;;;;;;;1.30;73.80;;;;;;5029602;28;19917;-90
2022/03/01 03:03:03;;;;;;;;;;;1.30;73.90;;;;;;5015127;28;19909;-91
2022/03/01 03:05:29;;;;;;;;;;;1.30;74.40;;;;;;5032130;28;20305;-91
2022/03/01 03:07:55;;;;;;;;;;;1.20;75.20;;;;;;5034590;28;19920;-91
2022/03/01 03:10:20;;;;;;;;;;;1.30;75.00;;;;;;5038688;28;20286;-92
2022/03/01 03:12:46;;;;;;;;;;;1.30;74.40;;;;;;5054489;28;19913;-91
2022/03/01 03:15:12;;;;;;;;;;;1.30;75.00;;;;;;5034737;28;19913;-91
2022/03/01 03:17:38;;;;;;;;;;;1.30;74.40;;;;;;5022323;28;19927;-90
2022/03/01 03:20:04;;;;;;;;;;;1.30;74.70;;;;;;5026068;28;19912;-90
2022/03/01 03:22:30;;;;;;;;;;;1.40;74.50;;;;;;5034284;28;19932;-87
2022/03/01 03:24:55;;;;;;;;;;;1.40;74.30;;;;;;5034269;28;19913;-88
2022/03/01 03:27:21;;;;;;;;;;;1.40;74.30;;;;;;5036224;28;19982;-88
2022/03/01 03:29:46;;;;;;;;;;;1.50;73.90;;;;;;5033658;28;19921;-88
2022/03/01 03:32:12;;;;;;;;;;;1.70;73.80;;;;;;5036218;28;20011;-88
2022/03/01 03:34:37;;;;;;;;;;;1.70;73.30;;;;;;5034982;28;19917;-87
2022/03/01 03:37:03;;;;;;;;;;;1.70;73.20;;;;;;5035213;28;19962;-90
2022/03/01 03:39:32;;;;;;;;;;;1.80;73.00;;;;;;5032384;28;20320;-90
2022/03/01 03:41:57;;;;;;;;;;;1.80;72.40;;;;;;5036565;28;20285;-90
2022/03/01 03:44:23;;;;;;;;;;;1.80;72.10;;;;;;5034122;28;20019;-90
2022/03/01 03:46:48;;;;;;;;;;;1.90;72.70;;;;;;5042333;28;19909;-91
2022/03/01 03:49:19;;;;;;;;;;;2.00;72.00;;;;;;5046684;28;19916;-91
2022/03/01 03:51:45;;;;;;;;;;;2.10;71.50;;;;;;5033420;28;19913;-91
2022/03/01 03:54:11;;;;;;;;;;;2.20;71.10;;;;;;5034378;28;19952;-90
2022/03/01 03:56:36;;;;;;;;;;;2.20;70.10;;;;;;5038083;28;19913;-91
2022/03/01 03:59:02;;;;;;;;;;;2.30;70.40;;;;;;5033631;28;19928;-91
2022/03/01 04:01:27;;;;;;;;;;;2.30;70.30;;;;;;5017609;28;20020;-91
2022/03/01 04:03:53;;;;;;;;;;;2.40;70.30;;;;;;5034475;28;19930;-90
2022/03/01 04:06:19;;;;;;;;;;;2.30;70.20;;;;;;5035316;28;19909;-91
2022/03/01 04:08:47;;;;;;;;;;;2.40;69.90;;;;;;5033925;28;19960;-91
2022/03/01 04:11:18;;;;;;;;;;;2.50;69.10;;;;;;5035395;28;19913;-91
2022/03/01 04:13:46;;;;;;;;;;;2.50;68.90;;;;;;5034729;28;19924;-91
2022/03/01 04:16:11;;;;;;;;;;;2.50;68.90;;;;;;5035302;28;19920;-91
2022/03/01 04:18:37;;;;;;;;;;;2.40;69.10;;;;;;5033369;28;19919;-90
2022/03/01 04:21:04;;;;;;;;;;;2.50;69.20;;;;;;5032999;28;19936;-90
2022/03/01 04:23:29;;;;;;;;;;;2.40;69.30;;;;;;5033027;28;19939;-90
2022/03/01 04:25:55;;;;;;;;;;;2.40;70.00;;;;;;5034175;28;19909;-91
2022/03/01 04:28:21;;;;;;;;;;;2.40;70.10;;;;;;5034501;28;20336;-90
2022/03/01 04:30:46;;;;;;;;;;;2.30;69.90;;;;;;5032655;28;19952;-91
2022/03/01 04:33:12;;;;;;;;;;;2.30;69.70;;;;;;5033581;28;19919;-91
2022/03/01 04:35:37;;;;;;;;;;;2.20;70.30;;;;;;5040581;28;19932;-91
2022/03/01 04:38:03;;;;;;;;;;;2.20;70.30;;;;;;5040175;28;20003;-88
2022/03/01 04:40:29;;;;;;;;;;;2.20;70.60;;;;;;5030362;28;19925;-88
2022/03/01 04:42:54;;;;;;;;;;;2.10;70.80;;;;;;5024687;28;19913;-89
2022/03/01 04:45:20;;;;;;;;;;;2.20;70.80;;;;;;5033196;28;20009;-88
2022/03/01 04:47:45;;;;;;;;;;;2.10;71.50;;;;;;5036009;28;19983;-88
2022/03/01 04:50:11;;;;;;;;;;;2.00;71.70;;;;;;5028668;28;19913;-88
2022/03/01 04:52:37;;;;;;;;;;;2.10;70.90;;;;;;5031295;28;20263;-88
2022/03/01 04:55:03;;;;;;;;;;;2.10;71.00;;;;;;5033111;28;19921;-88
2022/03/01 04:57:28;;;;;;;;;;;2.10;71.90;;;;;;5035731;28;19909;-88
2022/03/01 04:59:54;;;;;;;;;;;2.10;72.50;;;;;;5033300;28;20375;-88
2022/03/01 05:02:19;;;;;;;;;;;2.00;71.90;;;;;;5024458;28;19921;-87
2022/03/01 05:04:44;;;;;;;;;;;2.00;72.70;;;;;;5035140;28;19943;-88
2022/03/01 05:07:10;;;;;;;;;;;2.00;72.80;;;;;;5035136;28;19932;-87
2022/03/01 05:09:35;;;;;;;;;;;2.00;72.50;;;;;;5032931;28;19932;-88
2022/03/01 05:12:01;;;;;;;;;;;2.00;73.10;;;;;;5037543;28;20352;-88
2022/03/01 05:14:27;;;;;;;;;;;2.00;72.60;;;;;;5019329;28;20007;-89
2022/03/01 05:16:52;;;;;;;;;;;2.00;72.90;;;;;;5051412;28;19916;-92
2022/03/01 05:19:18;;;;;;;;;;;1.90;72.80;;;;;;5034980;28;19959;-90
2022/03/01 05:21:43;;;;;;;;;;;1.90;72.80;;;;;;5024347;28;19920;-87
2022/03/01 05:24:09;;;;;;;;;;;1.80;72.70;;;;;;5034160;28;19944;-89
2022/03/01 05:26:35;;;;;;;;;;;1.70;73.10;;;;;;5035740;28;19952;-91
2022/03/01 05:29:00;;;;;;;;;;;1.70;72.30;;;;;;5037183;28;20347;-91
2022/03/01 05:31:27;;;;;;;;;;;1.70;72.40;;;;;;5037226;28;19912;-88
2022/03/01 05:33:52;;;;;;;;;;;1.70;72.20;;;;;;5038251;28;19928;-88
2022/03/01 05:36:18;;;;;;;;;;;1.80;72.40;;;;;;5036881;28;19913;-89
2022/03/01 05:38:44;;;;;;;;;;;1.80;72.50;;;;;;5038304;28;19935;-88
2022/03/01 05:41:10;;;;;;;;;;;1.80;72.70;;;;;;5039902;28;19925;-89
2022/03/01 05:43:37;;;;;;;;;;;1.80;72.40;;;;;;5036290;28;19920;-88
2022/03/01 05:46:05;;;;;;;;;;;1.90;72.40;;;;;;5029831;28;19944;-87
2022/03/01 05:48:30;;;;;;;;;;;2.00;72.20;;;;;;5032224;28;19913;-89
2022/03/01 05:51:06;;;;;;;;;;;;;;;;;;;;;
2022/03/01 05:53:41;;;;;;;;;;;2.10;71.50;;;;;;5052333;28;19912;-91
2022/03/01 05:56:10;;;;;;;;;;;2.20;71.20;;;;;;5035997;28;19916;-91
2022/03/01 05:58:39;;;;;;;;;;;2.10;71.10;;;;;;5037791;28;19913;-90
2022/03/01 06:01:10;;;;;;;;;;;2.20;70.00;;;;;;5041299;28;19921;-91
2022/03/01 06:03:35;;;;;;;;;;;2.30;69.10;;;;;;5035612;28;19970;-90
2022/03/01 06:06:23;;;;;;;;;;;2.50;67.40;;;;;;5039666;28;19917;-91
2022/03/01 06:08:51;;;;;;;;;;;2.60;67.50;;;;;;5033713;28;19912;-91
2022/03/01 06:11:30;;;;;;;;;;;2.80;66.50;;;;;;5037306;28;20047;-91
2022/03/01 06:14:08;;;;;;;;;;;3.10;64.80;;;;;;5036166;28;19974;-91
2022/03/01 06:16:34;;;;;;;;;;;3.10;65.40;;;;;;5037225;28;19913;-91
2022/03/01 06:19:11;;;;;;;;;;;3.30;63.50;;;;;;5037220;28;20425;-90
2022/03/01 06:21:46;;;;;;;;;;;3.50;63.00;;;;;;5039072;28;19912;-90
2022/03/01 06:24:12;;;;;;;;;;;3.50;63.20;;;;;;5036502;28;19913;-91
2022/03/01 06:26:37;;;;;;;;;;;3.40;63.90;;;;;;5036959;28;19959;-91
2022/03/01 06:29:06;;;;;;;;;;;3.40;64.00;;;;;;5036666;28;19913;-91
2022/03/01 06:31:43;;;;;;;;;;;3.50;63.10;;;;;;5038275;28;19921;-91
2022/03/01 06:34:08;;;;;;;;;;;3.50;63.50;;;;;;5031309;28;19928;-90
2022/03/01 06:36:36;;;;;;;;;;;3.50;63.60;;;;;;5036607;28;19931;-90
2022/03/01 06:39:02;;;;;;;;;;;3.60;62.60;;;;;;5036195;28;19909;-91
2022/03/01 06:41:31;;;;;;;;;;;3.70;62.70;;;;;;5036175;28;20011;-90
2022/03/01 06:43:56;;;;;;;;;;;3.70;62.30;;;;;;5052463;28;19912;-87
2022/03/01 06:46:22;;;;;;;;;;;3.70;61.60;;;;;;5035704;28;20318;-86
2022/03/01 06:48:47;;;;;;;;;;;3.70;60.90;;;;;;5034432;28;19919;-86
2022/03/01 06:51:13;;;;;;;;;;;3.80;59.60;;;;;;5035543;28;19909;-85
2022/03/01 06:53:39;;;;;;;;;;;3.90;60.30;;;;;;5051341;28;19913;-86
2022/03/01 06:56:04;;;;;;;;;;;4.10;59.10;;;;;;5051007;28;19917;-86
2022/03/01 06:58:30;;;;;;;;;;;4.00;60.80;;;;;;5034515;28;19916;-86
2022/03/01 07:00:56;;;;;;;;;;;4.10;59.60;;;;;;5033198;28;19963;-87
2022/03/01 07:03:22;;;;;;;;;;;4.30;57.70;;;;;;5035008;28;19978;-85
2022/03/01 07:05:47;;;;;;;;;;;4.30;57.60;;;;;;5025369;28;19913;-87
2022/03/01 07:08:13;;;;;;;;;;;4.40;57.40;;;;;;5035959;28;19952;-87
2022/03/01 07:10:41;;;;;;;;;;;4.50;56.90;;;;;;5035829;28;19913;-87
2022/03/01 07:13:07;;;;;;;;;;;4.60;55.90;;;;;;5029494;28;19921;-86
2022/03/01 07:15:33;;;;;;;;;;;4.70;56.40;;;;;;5030785;28;19917;-86
2022/03/01 07:17:59;;;;;;;;;;;4.80;55.30;;;;;;5031133;28;19916;-86
2022/03/01 07:20:25;;;;;;;;;;;5.00;54.90;;;;;;5014765;28;19913;-86
2022/03/01 07:22:50;;;;;;;;;;;5.10;54.10;;;;;;5026727;28;19909;-87
2022/03/01 07:25:16;;;;;;;;;;;5.10;54.10;;;;;;5029944;28;19913;-87
2022/03/01 07:27:52;;;;;;;;;;;5.10;54.30;;;;;;5029200;28;19944;-87
2022/03/01 07:30:18;;;;;;;;;;;4.90;55.50;;;;;;5033668;28;19913;-87
2022/03/01 07:32:43;;;;;;;;;;;5.00;54.30;;;;;;5034280;28;19962;-87
2022/03/01 07:35:09;;;;;;;;;;;5.00;54.70;;;;;;5023097;28;19917;-86
2022/03/01 07:37:37;;;;;;;;;;;5.10;53.90;;;;;;5034160;28;19913;-87
2022/03/01 07:40:05;;;;;;;;;;;5.10;53.50;;;;;;5042670;28;19921;-86
2022/03/01 07:42:31;;;;;;;;;;;5.10;53.40;;;;;;5065559;28;19913;-86
2022/03/01 07:44:56;;;;;;;;;;;5.00;54.30;;;;;;5044455;28;20425;-87
2022/03/01 07:47:23;;;;;;;;;;;4.90;53.90;;;;;;5035839;28;19917;-86
2022/03/01 07:49:49;;;;;;;;;;;4.90;54.60;;;;;;5036204;28;19909;-87
2022/03/01 07:52:15;;;;;;;;;;;4.90;53.90;;;;;;5034388;28;19913;-86
2022/03/01 07:54:40;;;;;;;;;;;5.00;53.90;;;;;;5021453;28;19928;-89
2022/03/01 07:57:05;;;;;;;;;;;4.90;54.00;;;;;;5015069;28;19917;-88
2022/03/01 07:59:31;;;;;;;;;;;5.10;52.50;;;;;;5013171;28;19978;-89
2022/03/01 08:01:56;;;;;;;;;;;5.10;54.30;;;;;;5017910;28;19987;-88
2022/03/01 08:04:22;;;;;;;;;;;5.20;53.20;;;;;;5033475;28;19924;-89
2022/03/01 08:06:49;;;;;;;;;;;5.20;52.30;;;;;;5033125;28;19913;-89
2022/03/01 08:09:14;;;;;;;;;;;5.10;53.90;;;;;;5042737;28;19908;-87
2022/03/01 08:11:40;;;;;;;;;;;5.20;53.50;;;;;;5043312;28;19983;-89
2022/03/01 08:14:05;;;;;;;;;;;5.30;52.90;;;;;;5041242;28;20017;-87
2022/03/01 08:16:30;;;;;;;;;;;5.40;52.00;;;;;;5018348;28;20005;-88
2022/03/01 08:18:56;;;;;;;;;;;5.40;52.10;;;;;;5019534;28;20390;-87
2022/03/01 08:21:22;;;;;;;;;;;5.60;50.70;;;;;;5042056;28;19989;-90
2022/03/01 08:23:47;;;;;;;;;;;5.70;49.30;;;;;;5055157;28;19956;-87
2022/03/01 08:26:13;;;;;;;;;;;5.90;48.70;;;;;;5040937;28;19913;-86
2022/03/01 08:28:40;;;;;;;;;;;5.90;49.40;;;;;;5026617;28;19963;-88
2022/03/01 08:31:06;;;;;;;;;;;5.90;49.40;;;;;;5015282;28;19913;-88
2022/03/01 08:33:33;;;;;;;;;;;6.00;48.80;;;;;;5029240;28;20351;-88
2022/03/01 08:35:59;;;;;;;;;;;6.10;48.00;;;;;;5033940;28;19908;-87
2022/03/01 08:38:25;;;;;;;;;;;6.20;48.20;;;;;;5050867;28;20019;-89
2022/03/01 08:40:53;;;;;;;;;;;6.10;48.10;;;;;;5030920;28;20298;-89
2022/03/01 08:43:20;;;;;;;;;;;6.40;47.70;;;;;;5033104;28;19908;-89
2022/03/01 08:45:45;;;;;;;;;;;6.50;46.50;;;;;;5046496;28;19960;-90
2022/03/01 08:48:11;;;;;;;;;;;6.50;46.10;;;;;;5038438;28;20406;-89
2022/03/01 08:50:37;;;;;;;;;;;6.50;46.60;;;;;;5036136;28;19945;-89
2022/03/01 08:53:03;;;;;;;;;;;6.50;46.00;;;;;;5051442;28;19931;-87
2022/03/01 08:55:28;;;;;;;;;;;6.60;45.90;;;;;;5035253;28;20375;-89
2022/03/01 08:57:54;;;;;;;;;;;6.60;46.20;;;;;;5036610;28;19997;-89
2022/03/01 09:00:20;;;;;;;;;;;6.90;44.60;;;;;;5040655;28;19920;-90
2022/03/01 09:02:45;;;;;;;;;;;7.10;44.20;;;;;;5050278;28;19913;-89
2022/03/01 09:05:11;;;;;;;;;;;7.00;44.60;;;;;;5044984;28;19919;-89
2022/03/01 09:07:38;;;;;;;;;;;7.00;44.40;;;;;;5043487;28;20355;-90
2022/03/01 09:10:04;;;;;;;;;;;7.10;44.70;;;;;;5039554;28;19909;-90
2022/03/01 09:12:30;;;;;;;;;;;7.30;43.80;;;;;;5038890;28;19909;-90
2022/03/01 09:14:55;;;;;;;;;;;7.40;44.00;;;;;;5037850;28;19913;-90
2022/03/01 09:17:22;;;;;;;;;;;7.30;43.20;;;;;;5029650;28;19909;-89
2022/03/01 09:19:48;;;;;;;;;;;7.60;42.80;;;;;;5034307;28;19909;-89
2022/03/01 09:22:13;;;;;;;;;;;7.60;42.80;;;;;;5037308;28;19921;-89
2022/03/01 09:24:39;;;;;;;;;;;7.60;43.80;;;;;;5039116;28;20324;-89
2022/03/01 09:27:05;;;;;;;;;;;7.80;43.20;;;;;;5048148;28;19913;-90
2022/03/01 09:29:33;;;;;;;;;;;7.90;42.90;;;;;;5036615;28;20410;-89
2022/03/01 09:31:58;;;;;;;;;;;7.80;42.70;;;;;;5026870;28;20427;-89
2022/03/01 09:34:24;;;;;;;;;;;7.80;42.20;;;;;;5054660;28;19921;-90
2022/03/01 09:36:50;;;;;;;;;;;7.80;43.10;;;;;;5037520;28;20012;-87
2022/03/01 09:39:18;;;;;;;;;;;7.90;42.30;;;;;;5024372;28;20047;-88
2022/03/01 09:41:43;;;;;;;;;;;7.90;41.90;;;;;;5031536;28;19917;-88
2022/03/01 09:44:09;;;;;;;;;;;8.00;42.40;;;;;;5053612;28;19921;-89
2022/03/01 09:46:34;;;;;;;;;;;8.10;43.50;;;;;;5036393;28;19912;-91
2022/03/01 09:49:00;;;;;;;;;;;8.00;42.80;;;;;;5034740;28;20338;-88
2022/03/01 09:51:26;;;;;;;;;;;8.30;41.40;;;;;;5050243;28;20020;-89
2022/03/01 09:53:52;;;;;;;;;;;8.20;42.50;;;;;;5033035;28;19917;-90
2022/03/01 09:56:18;;;;;;;;;;;8.20;41.70;;;;;;5030395;28;19916;-87
2022/03/01 09:58:48;;;;;;;;;;;8.40;41.10;;;;;;5025247;28;19932;-87
2022/03/01 10:01:15;;;;;;;;;;;8.50;41.30;;;;;;5033874;28;19921;-88
2022/03/01 10:03:40;;;;;;;;;;;8.50;41.90;;;;;;5035674;28;20023;-89
2022/03/01 10:06:09;;;;;;;;;;;8.50;41.10;;;;;;5027922;28;20028;-89
2022/03/01 10:08:35;;;;;;;;;;;8.40;41.30;;;;;;5024825;28;19963;-89
2022/03/01 10:11:00;;;;;;;;;;;8.40;42.20;;;;;;5035847;28;19913;-89
2022/03/01 10:13:30;;;;;;;;;;;8.40;41.80;;;;;;5032809;28;19913;-86
2022/03/01 10:16:03;;;;;;;;;;;8.20;42.60;;;;;;5026302;28;19934;-86
2022/03/01 10:18:30;;;;;;;;;;;8.30;42.10;;;;;;5050080;28;20322;-87
2022/03/01 10:21:01;;;;;;;;;;;8.40;42.10;;;;;;5036009;28;20011;-87
2022/03/01 10:23:26;;;;;;;;;;;8.60;41.40;;;;;;5053509;28;19931;-86
2022/03/01 10:25:52;;;;;;;;;;;8.80;41.30;;;;;;5022221;28;20300;-87
2022/03/01 10:28:30;;;;;;;;;;;8.80;41.30;;;;;;5016994;28;19909;-87
2022/03/01 10:31:17;;;;;;;;;;;8.80;41.00;;;;;;5029093;28;20507;-87
2022/03/01 10:33:57;;;;;;;;;;;9.00;41.70;;;;;;5027750;28;19924;-86
2022/03/01 10:36:24;;;;;;;;;;;9.00;41.70;;;;;;5031429;28;20007;-89
2022/03/01 10:39:09;;;;;;;;;;;9.00;41.20;;;;;;5036162;28;19913;-89
2022/03/01 10:41:37;;;;;;;;;;;9.20;41.40;;;;;;5051779;28;19935;-90
2022/03/01 10:44:04;;;;;;;;;;;9.30;41.30;;;;;;5022071;28;19971;-90
2022/03/01 10:46:47;;;;;;;;;;;9.40;40.40;;;;;;5022557;28;19956;-89
2022/03/01 10:49:27;;;;;;;;;;;9.60;39.90;;;;;;5025955;28;19938;-92
2022/03/01 10:52:12;;;;;;;;;;;9.60;39.80;;;;;;5041130;28;19988;-91
2022/03/01 10:54:39;;;;;;;;;;;9.50;40.20;;;;;;5033242;28;20295;-89
2022/03/01 10:57:08;;;;;;;;;;;9.50;39.60;;;;;;5035538;28;19936;-88
2022/03/01 10:59:40;;;;;;;;;;;9.40;40.30;;;;;;5052667;28;19917;-91
2022/03/01 11:02:23;;;;;;;;;;;9.50;40.00;;;;;;5031534;28;19928;-90
2022/03/01 11:04:53;;;;;;;;;;;9.50;40.60;;;;;;5036070;28;19912;-92
2022/03/01 11:07:32;;;;;;;;;;;9.50;39.60;;;;;;5036672;28;19913;-88
2022/03/01 11:10:30;;;;;;;;;;;9.40;39.60;;;;;;5035698;28;20328;-88
2022/03/01 11:12:56;;;;;;;;;;;9.60;40.00;;;;;;5043282;28;19935;-87
2022/03/01 11:15:40;;;;;;;;;;;9.80;39.50;;;;;;5035668;28;19966;-86
2022/03/01 11:18:23;;;;;;;;;;;9.70;39.60;;;;;;5039217;28;19912;-87
2022/03/01 11:21:04;;;;;;;;;;;9.70;39.80;;;;;;5017292;28;19913;-90
2022/03/01 11:23:30;;;;;;;;;;;9.70;39.60;;;;;;5023619;28;19913;-90
2022/03/01 11:26:13;;;;;;;;;;;9.60;40.80;;;;;;5053126;28;20308;-85
2022/03/01 11:28:41;;;;;;;;;;;9.50;41.30;;;;;;5054272;28;19923;-86
2022/03/01 11:31:28;;;;;;;;;;;9.60;40.90;;;;;;5034371;28;20390;-84
2022/03/01 11:33:55;;;;;;;;;;;10.00;40.20;;;;;;5059204;28;19915;-84
2022/03/01 11:36:22;;;;;;;;;;;10.00;40.90;;;;;;5071008;28;19909;-84
2022/03/01 11:38:47;;;;;;;;;;;10.00;40.50;;;;;;5065116;28;19913;-85
2022/03/01 11:41:18;;;;;;;;;;;10.20;40.00;;;;;;5052825;28;19928;-86
2022/03/01 11:43:44;;;;;;;;;;;10.20;39.60;;;;;;5057761;28;20263;-84
2022/03/01 11:46:17;;;;;;;;;;;10.20;39.90;;;;;;5056133;28;19935;-84
2022/03/01 11:48:51;;;;;;;;;;;9.90;40.20;;;;;;5043616;28;19916;-85
2022/03/01 11:51:17;;;;;;;;;;;10.10;40.50;;;;;;5024710;28;19924;-84
2022/03/01 11:53:50;;;;;;;;;;;10.30;40.90;;;;;;5037684;28;19917;-88
2022/03/01 11:56:22;;;;;;;;;;;10.40;41.60;;;;;;5036617;28;19912;-88
2022/03/01 11:59:11;;;;;;;;;;;10.40;41.20;;;;;;5035348;28;20008;-88
2022/03/01 12:02:03;;;;;;;;;;;10.40;40.10;;;;;;5035137;28;19991;-89
2022/03/01 12:05:04;;;;;;;;;;;10.40;40.50;;;;;;5035624;28;19909;-87
2022/03/01 12:07:33;;;;;;;;;;;10.60;40.60;;;;;;4972647;28;20007;-86
2022/03/01 12:09:59;;;;;;;;;;;10.20;39.80;;;;;;5006488;28;19936;-84
2022/03/01 12:12:35;;;;;;;;;;;10.40;39.90;;;;;;5049239;28;19908;-84
2022/03/01 12:15:02;;;;;;;;;;;10.50;41.50;;;;;;5034757;28;20279;-83
2022/03/01 12:17:27;;;;;;;;;;;10.40;41.10;;;;;;5035045;28;20023;-84
2022/03/01 12:19:59;;;;;;;;;;;10.50;41.50;;;;;;5033783;28;19991;-85
2022/03/01 12:22:25;;;;;;;;;;;10.50;41.50;;;;;;5034006;28;19917;-84
2022/03/01 12:24:50;;;;;;;;;;;10.60;39.10;;;;;;5043852;28;19919;-80
2022/03/01 12:27:29;;;;;;;;;;;10.90;38.90;;;;;;5052916;28;19913;-83
2022/03/01 12:29:54;;;;;;;;;;;11.00;39.10;;;;;;5047262;28;20012;-85
2022/03/01 12:32:20;;;;;;;;;;;11.00;38.60;;;;;;5035756;28;20437;-84
2022/03/01 12:34:47;;;;;;;;;;;11.20;39.00;;;;;;5046453;28;19913;-84
2022/03/01 12:37:14;;;;;;;;;;;11.20;39.50;;;;;;5034791;28;19913;-85
2022/03/01 12:39:39;;;;;;;;;;;11.20;39.40;;;;;;5051434;28;19920;-84
2022/03/01 12:42:06;;;;;;;;;;;11.10;38.80;;;;;;5034727;28;19920;-84
2022/03/01 12:44:33;;;;;;;;;;;11.20;39.40;;;;;;5052637;28;19912;-84
2022/03/01 12:47:00;;;;;;;;;;;11.20;39.40;;;;;;5027713;28;19919;-85
2022/03/01 12:49:33;;;;;;;;;;;11.20;39.90;;;;;;5053418;28;20383;-87
2022/03/01 12:51:59;;;;;;;;;;;11.30;39.10;;;;;;5033691;28;19917;-86
2022/03/01 12:54:26;;;;;;;;;;;11.40;39.80;;;;;;5044034;28;20017;-86
2022/03/01 12:56:55;;;;;;;;;;;11.60;37.40;;;;;;5031622;28;20294;-86
2022/03/01 12:59:25;;;;;;;;;;;11.70;37.30;;;;;;5031652;28;19908;-85
2022/03/01 13:01:51;;;;;;;;;;;11.20;38.90;;;;;;5038832;28;19917;-88
2022/03/01 13:04:17;;;;;;;;;;;11.30;38.00;;;;;;5032414;28;19913;-87
2022/03/01 13:06:44;;;;;;;;;;;11.30;38.90;;;;;;5050391;28;19917;-87
2022/03/01 13:09:09;;;;;;;;;;;11.70;37.40;;;;;;5029747;28;19956;-86
2022/03/01 13:11:35;;;;;;;;;;;11.70;37.50;;;;;;5046610;28;19921;-89
2022/03/01 13:14:04;;;;;;;;;;;11.30;38.60;;;;;;5050697;28;19909;-87
2022/03/01 13:16:33;;;;;;;;;;;11.40;37.30;;;;;;5034740;28;19958;-83
2022/03/01 13:19:00;;;;;;;;;;;11.50;38.50;;;;;;5051603;28;19984;-85
2022/03/01 13:21:27;;;;;;;;;;;11.50;37.70;;;;;;5046836;28;20296;-85
2022/03/01 13:23:53;;;;;;;;;;;11.50;38.40;;;;;;5029924;28;19913;-89
2022/03/01 13:26:19;;;;;;;;;;;11.30;38.50;;;;;;5029040;28;20390;-86
2022/03/01 13:28:45;;;;;;;;;;;11.30;38.70;;;;;;5051946;28;20008;-86
2022/03/01 13:31:19;;;;;;;;;;;11.20;38.90;;;;;;5031619;28;20392;-87
2022/03/01 13:33:44;;;;;;;;;;;11.40;37.60;;;;;;5016104;28;19913;-87
2022/03/01 13:36:11;;;;;;;;;;;11.30;38.70;;;;;;5018664;28;19917;-88
2022/03/01 13:38:37;;;;;;;;;;;11.20;39.80;;;;;;5037133;28;20517;-84
2022/03/01 13:41:03;;;;;;;;;;;11.30;39.00;;;;;;5034623;28;19964;-85
2022/03/01 13:43:31;;;;;;;;;;;11.20;39.10;;;;;;5032630;28;19963;-84
2022/03/01 13:45:58;;;;;;;;;;;11.20;38.20;;;;;;5034010;28;19913;-85
2022/03/01 13:48:34;;;;;;;;;;;11.30;38.70;;;;;;5033670;28;19924;-84
2022/03/01 13:51:06;;;;;;;;;;;11.10;39.10;;;;;;5052115;28;19915;-84
2022/03/01 13:53:32;;;;;;;;;;;11.40;38.40;;;;;;5022230;28;20338;-85
2022/03/01 13:55:58;;;;;;;;;;;11.30;38.20;;;;;;5041231;28;20023;-85
2022/03/01 13:58:24;;;;;;;;;;;11.30;38.30;;;;;;5032547;28;19924;-84
2022/03/01 14:00:52;;;;;;;;;;;11.50;38.20;;;;;;5054831;28;20493;-83
2022/03/01 14:03:18;;;;;;;;;;;11.50;39.20;;;;;;5035649;28;20446;-82
2022/03/01 14:05:51;;;;;;;;;;;11.50;39.40;;;;;;5053640;28;19988;-84
2022/03/01 14:08:17;;;;;;;;;;;11.00;39.30;;;;;;5037923;28;20376;-83
2022/03/01 14:10:51;;;;;;;;;;;11.20;39.50;;;;;;5039289;28;19920;-84
2022/03/01 14:13:23;;;;;;;;;;;11.00;40.30;;;;;;5056735;28;19913;-83
2022/03/01 14:15:50;;;;;;;;;;;11.10;40.80;;;;;;5027541;28;19975;-84
2022/03/01 14:18:16;;;;;;;;;;;11.10;40.70;;;;;;5023050;28;19916;-83
2022/03/01 14:20:42;;;;;;;;;;;11.20;41.20;;;;;;5055645;28;19913;-84
2022/03/01 14:23:09;;;;;;;;;;;11.30;39.90;;;;;;5057104;28;19916;-84
2022/03/01 14:25:34;;;;;;;;;;;11.40;39.70;;;;;;5040160;28;19913;-83
2022/03/01 14:28:00;;;;;;;;;;;11.60;39.40;;;;;;5045813;28;19913;-87
2022/03/01 14:30:25;;;;;;;;;;;11.30;40.70;;;;;;5052663;28;19936;-90
2022/03/01 14:32:51;;;;;;;;;;;11.30;40.60;;;;;;5041799;28;19936;-86